Wind From: 20-06-2018 11:00 Until: 22:00 warning for: Wind Level: Yellow info button
suomi:
Tuulivaroitus maa-alueille: Länsituuli on voimakasta keskipäivästä alkaen, tuulen nopeus puuskissa 15 m/s.

svenska:
Vindvarning för landområden: Från och med middagen är den västliga vinden kraftigt, i vindbyarna 15 m/s.

english:
Wind warning for land areas: From noon on, strong winds from west may bring strong gusts of 15 m/s. 


Thunder radar more information blitzortung!


Löydät sääaseman tiedot myös:

European Weather Network

Finland Weather Exchange

Weather Underground

AWEKAS



Weather Underground säähistoriasivu

Päivittäin yhteenveto Lokakuu 5, 2017 Yksiköt:  Englantilaiset    Metriset   Molemmat
« Edellinen Päivä
Seuraava Päivä »
Päivittäin Viikoittain Kuukausittain Vuosittain Mukautettu
  Korkea: Matala: Keskiarvo:
Lämpötila: TemperatureC °F 6.4 °F 7.7 °F
Kastepiste: DewpointC °F 6.0 °F 7.2 °F
Kosteus: Humidity % 93 % 96 %
Tuulen nopeus: WindSpeedKMH mph 0.0 mph 0 mph
Tuulenpuuska: WindSpeedGustKMH mph - -
Tuuli:- - North
Ilmanpaine: PressurehPa in 983.3 in -
Sade: 0.0 in    
Historical Graphs
 
 
Taulukkotiedot Lokakuu 5, 2017
Aika Lämpötila Kastepiste Ilmanpaine Tuuli Tuulen nopeus Tuulenpuuska Kosteus Sademäärä (tunneittain)
TemperatureC °F DewpointC °F PressurehPa in Calm     Humidity % HourlyPrecipMM in
00:00 7.9 °F 7.3 °F 985.0 in Calm     96 % 0.0 in
00:15 7.8 °F 7.2 °F 985.0 in Calm     96 % 0.0 in
00:30 7.8 °F 7.3 °F 985.0 in Calm     97 % 0.0 in
00:45 7.8 °F 7.3 °F 985.0 in Calm     97 % 0.0 in
01:00 7.7 °F 7.3 °F 984.6 in Calm     97 % 0.0 in
01:15 7.7 °F 7.2 °F 984.6 in Calm     97 % 0.0 in
01:30 7.7 °F 7.2 °F 984.6 in Calm     97 % 0.0 in
01:45 7.7 °F 7.2 °F 984.6 in Calm     97 % 0.0 in
02:00 7.6 °F 7.2 °F 984.6 in Calm     97 % 0.0 in
02:15 7.6 °F 7.1 °F 984.6 in Calm     97 % 0.0 in
02:30 7.5 °F 7.1 °F 984.3 in Calm     97 % 0.0 in
02:45 7.5 °F 7.1 °F 984.3 in Calm     97 % 0.0 in
03:00 7.5 °F 7.1 °F 984.3 in Calm     97 % 0.0 in
03:15 7.5 °F 7.1 °F 984.3 in Calm     97 % 0.0 in
03:30 7.5 °F 7.1 °F 984.3 in Calm     97 % 0.0 in
03:45 7.4 °F 7.0 °F 984.3 in Calm     97 % 0.0 in
04:00 7.5 °F 7.1 °F 984.0 in Calm     97 % 0.0 in
04:15 7.4 °F 7.0 °F 984.0 in Calm     97 % 0.0 in
04:30 7.3 °F 6.9 °F 984.0 in Calm     97 % 0.0 in
04:45 7.2 °F 6.8 °F 984.0 in Calm     97 % 0.0 in
05:00 7.2 °F 6.7 °F 984.0 in Calm     97 % 0.0 in
05:15 7.2 °F 6.7 °F 984.0 in Calm     97 % 0.0 in
05:30 7.2 °F 6.7 °F 984.0 in Calm     97 % 0.0 in
05:45 7.0 °F 6.6 °F 984.0 in Calm     97 % 0.0 in
06:00 6.8 °F 6.4 °F 984.0 in Calm     97 % 0.0 in
06:30 6.7 °F 6.3 °F 984.0 in Calm     97 % 0.0 in
06:45 6.8 °F 6.3 °F 984.0 in Calm     97 % 0.0 in
07:00 6.8 °F 6.3 °F 983.6 in Calm     97 % 0.0 in
07:15 6.8 °F 6.4 °F 983.6 in Calm     97 % 0.0 in
07:45 6.9 °F 6.5 °F 983.6 in Calm     97 % 0.0 in
08:00 6.9 °F 6.5 °F 983.6 in Calm     97 % 0.0 in
08:15 7.0 °F 6.6 °F 983.6 in Calm     97 % 0.0 in
08:30 7.1 °F 6.6 °F 983.3 in Calm     97 % 0.0 in
08:45 7.1 °F 6.7 °F 983.6 in Calm     97 % 0.0 in
09:00 7.2 °F 6.7 °F 983.6 in Calm     97 % 0.0 in
09:30 7.3 °F 7.0 °F 983.6 in Calm     98 % 0.0 in
09:45 7.3 °F 7.0 °F 983.6 in Calm     98 % 0.0 in
10:00 7.5 °F 7.2 °F 983.6 in Calm     98 % 0.0 in
10:15 7.7 °F 7.4 °F 983.6 in Calm     98 % 0.0 in
10:30 7.9 °F 7.6 °F 983.6 in Calm     98 % 0.0 in
10:45 7.9 °F 7.6 °F 984.0 in Calm     98 % 0.0 in
11:00 8.0 °F 7.7 °F 984.0 in Calm     98 % 0.0 in
11:15 8.1 °F 7.8 °F 984.0 in Calm     98 % 0.0 in
11:30 8.2 °F 7.9 °F 984.0 in Calm     98 % 0.0 in
11:45 8.2 °F 7.9 °F 984.0 in Calm     98 % 0.0 in
12:00 8.3 °F 8.0 °F 984.3 in Calm     98 % 0.0 in
12:15 8.3 °F 8.0 °F 984.3 in Calm     98 % 0.0 in
12:30 8.4 °F 8.0 °F 984.3 in Calm     97 % 0.0 in
12:45 8.4 °F 8.0 °F 984.3 in Calm     97 % 0.0 in
13:00 8.3 °F 7.9 °F 984.6 in Calm     97 % 0.0 in
13:15 8.4 °F 7.9 °F 984.6 in Calm     97 % 0.0 in
13:30 8.4 °F 8.0 °F 984.6 in Calm     97 % 0.0 in
13:45 8.7 °F 8.3 °F 984.6 in Calm     97 % 0.0 in
14:00 8.8 °F 8.3 °F 984.6 in Calm     97 % 0.0 in
14:15 9.2 °F 8.7 °F 984.6 in Calm     97 % 0.0 in
14:30 9.3 °F 8.7 °F 984.6 in Calm     96 % 0.0 in
14:45 9.3 °F 8.6 °F 984.6 in Calm     95 % 0.0 in
15:00 9.3 °F 8.4 °F 984.6 in Calm     94 % 0.0 in
15:15 9.2 °F 8.3 °F 984.6 in Calm     94 % 0.0 in
15:30 9.3 °F 8.3 °F 985.0 in Calm     93 % 0.0 in
15:45 9.5 °F 8.4 °F 985.0 in Calm     93 % 0.0 in
16:00 9.6 °F 8.5 °F 985.0 in Calm     93 % 0.0 in
16:15 9.4 °F 8.4 °F 985.0 in Calm     93 % 0.0 in
16:45 9.1 °F 8.2 °F 985.0 in Calm     94 % 0.0 in
17:00 9.0 °F 8.2 °F 985.3 in Calm     95 % 0.0 in
17:15 8.9 °F 8.1 °F 985.3 in Calm     95 % 0.0 in
17:30 8.8 °F 8.2 °F 985.3 in Calm     96 % 0.0 in
17:45 8.8 °F 8.2 °F 985.3 in Calm     96 % 0.0 in
18:00 8.7 °F 8.1 °F 985.7 in Calm     96 % 0.0 in
18:15 8.6 °F 8.0 °F 985.7 in Calm     96 % 0.0 in
18:30 8.5 °F 7.9 °F 985.7 in Calm     96 % 0.0 in
18:45 8.4 °F 7.8 °F 985.7 in Calm     96 % 0.0 in
19:00 8.3 °F 7.7 °F 986.0 in Calm     96 % 0.0 in
19:15 8.1 °F 7.5 °F 986.0 in Calm     96 % 0.0 in
19:45 7.9 °F 7.3 °F 986.3 in Calm     96 % 0.0 in
20:00 7.8 °F 7.2 °F 986.3 in Calm     96 % 0.0 in
20:15 7.7 °F 7.2 °F 986.3 in Calm     97 % 0.0 in
20:30 7.6 °F 7.1 °F 986.7 in Calm     97 % 0.0 in
20:45 7.4 °F 7.0 °F 986.7 in Calm     97 % 0.0 in
21:00 7.4 °F 6.9 °F 986.7 in Calm     97 % 0.0 in
21:15 7.3 °F 6.8 °F 987.0 in Calm     97 % 0.0 in
21:30 7.2 °F 6.8 °F 987.0 in Calm     97 % 0.0 in
21:45 7.1 °F 6.7 °F 987.0 in Calm     97 % 0.0 in
22:00 6.9 °F 6.5 °F 987.4 in Calm     97 % 0.0 in
22:30 6.8 °F 6.3 °F 987.4 in Calm     97 % 0.0 in
22:45 6.7 °F 6.2 °F 987.4 in Calm     97 % 0.0 in
23:00 6.6 °F 6.1 °F 987.7 in Calm     97 % 0.0 in
23:15 6.5 °F 6.1 °F 987.7 in Calm     97 % 0.0 in
23:30 6.4 °F 6.0 °F 987.7 in Calm     97 % 0.0 in
23:45 6.4 °F 6.0 °F 988.0 in Calm     97 % 0.0 in
Esan sääasema
Terveisin Weather Underground - 2.75 mb

Alkuperäinen skripti  Jim McMurry - jmcmurry@mwt.net Sovitettu myös templatelle  Wim van der Kuil - Leuven-Template.eu

Laitteet joita käytämme:

Sääasema
Davis VP2

Sääasemaohjelma
Cumulus

Sääaseman tietokone
Asus EeePC

Palveluntarjoaja
Suncomet

Davis VP2

Cumulus

Asus EeePC

Suncomet